Terminal Aerodrome Forecast
Issued by NWS

Home | Current Version | Previous Version | Text Only | Print | Product List | Glossary On
Versions: 1 2 3 4 5 6 7 8 9 10 11 12 13 14 15 16 17 18 19 20 21 22 23
000
FTAK31 PANC 271140
TAFACD
TAF
PACD 271140Z 2712/2812 13004KT 1/2SM FG BKN001
      TEMPO 2713/2715 2SM BR
     FM271500 12006KT P6SM -SHRA SCT003 BKN010
     FM272100 11007KT P6SM SCT020 BKN040=

USA.gov is the U.S. government's official web portal to all federal, state and local government web resources and services.